This is the latest recevied weather packets stored in our database for station/object DG3RAP-11. If no packets are shown the sender has not sent any weather packets the latest 1 day(s).
| Time | Temp. | Humidity | Pressure | Rain* | Wind** | Luminosity | Snow |
|---|---|---|---|---|---|---|---|
| 1836274677 | 13.33° C | 89% | 1021.8 hPa | 0 mm | 1.34 m/s, 73° | - | - |
| 1836274467 | 13.33° C | 89% | 1022 hPa | 0 mm | 1.79 m/s, 79° | - | - |
| 1836274138 | 12.78° C | 90% | 1021.9 hPa | 0 mm | 1.79 m/s, 82° | - | - |
| 1778027763 | 11.67° C | 95% | 1007.7 hPa | 0 mm | 0.45 m/s, 222° | - | - |
| 1778027223 | 12.22° C | 94% | 1007.9 hPa | 0 mm | 0.45 m/s, 243° | - | - |
| 1778026683 | 12.22° C | 94% | 1008 hPa | 0 mm | 0 m/s | - | - |
| 1778026143 | 12.22° C | 94% | 1007.9 hPa | 0 mm | 0 m/s | - | - |
| 1778025603 | 12.22° C | 94% | 1008.3 hPa | 0 mm | 0 m/s | - | - |
| 1778025243 | 12.22° C | 94% | 1008.2 hPa | 0 mm | 0.45 m/s, 169° | - | - |
| 1778024703 | 12.22° C | 95% | 1008.4 hPa | 0 mm | 0 m/s | - | - |
| 1778024163 | 11.67° C | 95% | 1008.5 hPa | 0 mm | 0.45 m/s, 238° | - | - |
| 1778023623 | 12.22° C | 95% | 1008.2 hPa | 0 mm | 0 m/s | - | - |
| 1778023083 | 12.22° C | 95% | 1008.1 hPa | 0 mm | 0.89 m/s, 269° | - | - |
| 1778022543 | 12.22° C | 95% | 1008.1 hPa | 0 mm | 0.45 m/s, 225° | - | - |
| 1778022003 | 12.22° C | 95% | 1008 hPa | 0 mm | 0 m/s | - | - |
| 1778021643 | 12.22° C | 95% | 1008.1 hPa | 0 mm | 0.45 m/s, 225° | - | - |
| 1778021103 | 12.22° C | 94% | 1008.4 hPa | 0 mm | 0 m/s | - | - |
| 1778020563 | 12.22° C | 94% | 1008.2 hPa | 0 mm | 0.45 m/s, 241° | - | - |
| 1778020023 | 12.22° C | 93% | 1008.1 hPa | 0 mm | 0.89 m/s, 273° | - | - |
| 1778019483 | 12.22° C | 93% | 1008.2 hPa | 0 mm | 1.34 m/s, 267° | - | - |
| 1778018943 | 12.22° C | 95% | 1008.2 hPa | 0 mm | 1.34 m/s, 274° | - | - |
| 1778018403 | 12.22° C | 95% | 1008.1 hPa | 0 mm | 0.45 m/s, 277° | - | - |
| 1778018043 | 12.22° C | 96% | 1008.1 hPa | 0 mm | 0.89 m/s, 275° | - | - |
| 1778017503 | 12.22° C | 96% | 1008 hPa | 0 mm | 0.89 m/s, 271° | - | - |
| 1778016963 | 12.22° C | 96% | 1008.1 hPa | 0 mm | 0.89 m/s, 283° | - | - |
* Rain latest hour (hover to see other rain measurements)
** Current wind speed in m/s (hover to see current wind gust speed)